Terminal Aerodrome Forecast
Issued by NWS

Home | Current Version | Previous Version | Graphics & Text | Print | Product List | Glossary On
Versions: 1 2 3 4 5 6 7 8 9 10 11 12 13 14
000
FTUS43 KIWX 270534
TAFSBN
TAF
KSBN 270534Z 2706/2806 03010KT 6SM -SHRA SCT030 OVC080
     FM271500 36014G22KT P6SM BKN040
     FM280100 33004KT P6SM SKC=

USA.gov is the U.S. government's official web portal to all federal, state and local government web resources and services.